createdAt,value
2022-11-18T00:01:26.595Z,0.30
2022-11-18T00:03:54.823Z,0.33
2022-11-18T00:06:24.653Z,0.40
2022-11-18T00:08:52.935Z,0.30
2022-11-18T00:11:41.757Z,0.30
2022-11-18T00:14:21.243Z,0.40
2022-11-18T00:16:52.880Z,0.40
2022-11-18T00:19:21.742Z,0.43
2022-11-18T00:21:50.190Z,0.40
2022-11-18T00:24:18.629Z,0.43
2022-11-18T00:26:47.202Z,0.40
2022-11-18T00:29:17.886Z,0.40
2022-11-18T00:31:46.238Z,0.43
2022-11-18T00:34:16.387Z,0.30
2022-11-18T00:36:45.948Z,0.50
2022-11-18T00:39:15.849Z,0.60
2022-11-18T00:41:58.188Z,0.60
2022-11-18T00:44:27.918Z,0.53
2022-11-18T00:46:56.457Z,0.73
2022-11-18T00:49:24.674Z,0.50
2022-11-18T00:51:53.081Z,0.40
2022-11-18T00:54:21.730Z,0.40
2022-11-18T00:56:50.272Z,0.50
2022-11-18T00:59:18.691Z,0.40
2022-11-18T01:01:49.286Z,0.47
2022-11-18T01:04:17.992Z,0.50
2022-11-18T01:06:46.325Z,0.50
2022-11-18T01:09:14.758Z,0.50
2022-11-18T01:12:00.578Z,0.43
2022-11-18T01:14:28.962Z,0.40
2022-11-18T01:16:58.773Z,0.50
2022-11-18T01:19:27.434Z,0.40
2022-11-18T01:21:56.619Z,0.30
2022-11-18T01:24:24.695Z,0.50
2022-11-18T01:26:52.948Z,0.40
2022-11-18T01:29:21.084Z,0.50
2022-11-18T01:32:17.264Z,0.50
2022-11-18T01:34:38.979Z,0.50
2022-11-18T01:37:07.031Z,0.40
2022-11-18T01:39:35.057Z,0.50
2022-11-18T01:42:03.513Z,0.40
2022-11-18T01:45:10.386Z,0.40
2022-11-18T01:47:43.586Z,0.50
2022-11-18T01:50:16.685Z,0.30
2022-11-18T01:52:51.257Z,0.40
2022-11-18T01:55:24.532Z,0.40
2022-11-18T01:57:59.471Z,0.40
2022-11-18T02:00:27.705Z,0.40
2022-11-18T02:02:55.927Z,0.30
2022-11-18T02:05:27.228Z,0.40
2022-11-18T02:07:55.360Z,0.60
2022-11-18T02:10:25.184Z,0.50
2022-11-18T02:12:54.823Z,0.37
2022-11-18T02:15:29.999Z,0.53
2022-11-18T02:18:05.754Z,0.40
2022-11-18T02:20:39.549Z,0.47
2022-11-18T02:23:46.503Z,0.50
2022-11-18T02:26:44.318Z,0.40
2022-11-18T02:29:19.168Z,0.37
2022-11-18T02:31:55.807Z,0.50
2022-11-18T02:34:35.585Z,0.40
2022-11-18T02:37:12.874Z,0.50
2022-11-18T02:39:46.516Z,0.50
2022-11-18T02:42:17.545Z,0.60
2022-11-18T02:44:53.643Z,0.50
2022-11-18T02:47:23.865Z,0.60
2022-11-18T02:49:56.623Z,0.60
2022-11-18T02:52:26.970Z,0.50
2022-11-18T02:54:56.815Z,0.60
2022-11-18T02:57:26.770Z,0.60
2022-11-18T02:59:56.278Z,0.60
2022-11-18T03:02:24.423Z,0.60
2022-11-18T03:04:57.067Z,0.70
2022-11-18T03:07:31.268Z,0.67
2022-11-18T03:10:03.760Z,0.40
2022-11-18T03:12:38.396Z,0.50
2022-11-18T03:15:18.350Z,0.60
2022-11-18T03:17:56.942Z,0.50
2022-11-18T03:20:28.073Z,0.60
2022-11-18T03:23:02.316Z,0.40
2022-11-18T03:25:38.483Z,0.50
2022-11-18T03:28:13.218Z,0.50
2022-11-18T03:30:47.361Z,0.40
2022-11-18T03:33:20.570Z,0.57
2022-11-18T03:35:54.022Z,0.50
2022-11-18T03:38:29.282Z,0.40
2022-11-18T03:41:02.824Z,0.50
2022-11-18T03:43:38.001Z,0.50
2022-11-18T03:46:11.711Z,0.60
2022-11-18T03:48:45.240Z,0.60
2022-11-18T03:51:18.554Z,0.50
2022-11-18T03:53:51.094Z,0.67
2022-11-18T03:56:23.078Z,0.50
2022-11-18T03:58:55.658Z,0.50
2022-11-18T04:01:35.632Z,0.50
2022-11-18T04:04:04.000Z,0.53
2022-11-18T04:06:38.791Z,0.40
2022-11-18T04:09:13.726Z,0.60
2022-11-18T04:12:05.504Z,0.50
2022-11-18T04:14:35.759Z,0.60
2022-11-18T04:17:10.670Z,0.70
2022-11-18T04:19:39.453Z,0.60
2022-11-18T04:22:11.685Z,0.70
2022-11-18T04:24:40.054Z,0.60
2022-11-18T04:27:08.855Z,0.70
2022-11-18T04:29:37.187Z,0.60
2022-11-18T04:32:08.008Z,0.70
2022-11-18T04:34:39.396Z,0.60
2022-11-18T04:37:08.049Z,0.60
2022-11-18T04:39:36.212Z,0.80
2022-11-18T04:42:04.461Z,0.57
2022-11-18T04:44:34.251Z,0.60
2022-11-18T04:47:05.046Z,0.70
2022-11-18T04:49:36.014Z,0.60
2022-11-18T04:52:04.632Z,0.67
2022-11-18T04:54:32.672Z,0.70
2022-11-18T04:57:01.698Z,0.77
2022-11-18T04:59:31.078Z,0.87
2022-11-18T05:02:01.305Z,0.80
2022-11-18T05:04:31.857Z,0.60
2022-11-18T05:07:03.083Z,0.90
2022-11-18T05:09:32.238Z,1.00
2022-11-18T05:12:18.522Z,0.80
2022-11-18T05:14:50.581Z,0.83
2022-11-18T05:17:20.067Z,0.80
2022-11-18T05:19:48.601Z,0.70
2022-11-18T05:22:18.404Z,0.83
2022-11-18T05:24:46.666Z,1.00
2022-11-18T05:27:16.078Z,1.07
2022-11-18T05:29:44.613Z,0.93
2022-11-18T05:32:13.232Z,1.00
2022-11-18T05:34:41.877Z,1.10
2022-11-18T05:37:10.488Z,0.93
2022-11-18T05:39:40.196Z,1.00
2022-11-18T05:42:26.239Z,0.90
2022-11-18T05:44:58.169Z,1.10
2022-11-18T05:47:27.257Z,1.00
2022-11-18T05:49:55.640Z,0.80
2022-11-18T05:52:23.765Z,0.90
2022-11-18T05:54:53.254Z,1.03
2022-11-18T05:57:21.701Z,1.00
2022-11-18T05:59:49.840Z,1.10
2022-11-18T06:02:23.202Z,0.93
2022-11-18T06:04:56.011Z,1.33
2022-11-18T06:07:31.142Z,1.03
2022-11-18T06:10:05.559Z,1.10
2022-11-18T06:12:40.317Z,1.10
2022-11-18T06:15:14.841Z,1.33
2022-11-18T06:17:48.434Z,1.17
2022-11-18T06:20:19.334Z,1.20
2022-11-18T06:22:48.460Z,1.57
2022-11-18T06:25:18.782Z,1.33
2022-11-18T06:27:48.521Z,1.30
2022-11-18T06:30:17.395Z,1.43
2022-11-18T06:32:46.830Z,1.17
2022-11-18T06:35:15.400Z,1.27
2022-11-18T06:37:43.692Z,1.70
2022-11-18T06:40:13.328Z,1.60
2022-11-18T06:43:00.669Z,1.90
2022-11-18T06:45:28.982Z,1.30
2022-11-18T06:47:57.635Z,1.40
2022-11-18T06:50:26.090Z,1.27
2022-11-18T06:52:54.683Z,1.40
2022-11-18T06:55:22.989Z,1.20
2022-11-18T06:57:52.457Z,1.27
2022-11-18T07:00:21.201Z,1.20
2022-11-18T07:02:49.609Z,1.40
2022-11-18T07:05:17.758Z,1.40
2022-11-18T07:07:46.038Z,1.80
2022-11-18T07:10:14.380Z,1.50
2022-11-18T07:12:42.534Z,1.30
2022-11-18T07:15:12.698Z,1.20
2022-11-18T07:17:40.828Z,1.47
2022-11-18T07:20:09.908Z,1.50
2022-11-18T07:22:38.566Z,1.50
2022-11-18T07:25:07.553Z,1.70
2022-11-18T07:27:35.696Z,1.30
2022-11-18T07:30:06.427Z,1.47
2022-11-18T07:32:36.070Z,1.83
2022-11-18T07:35:04.260Z,1.50
2022-11-18T07:37:32.567Z,1.50
2022-11-18T07:40:00.963Z,1.23
2022-11-18T07:42:29.097Z,1.40
2022-11-18T07:44:57.609Z,1.37
2022-11-18T07:47:25.907Z,1.40
2022-11-18T07:49:55.389Z,1.40
2022-11-18T07:52:23.528Z,1.10
2022-11-18T07:54:51.886Z,1.00
2022-11-18T07:57:22.788Z,1.10
2022-11-18T07:59:51.029Z,1.27
2022-11-18T08:02:19.245Z,1.10
2022-11-18T08:04:47.465Z,1.00
2022-11-18T08:07:17.108Z,1.20
2022-11-18T08:09:45.303Z,1.10
2022-11-18T08:12:13.455Z,1.30
2022-11-18T08:14:41.615Z,1.23
2022-11-18T08:17:09.920Z,1.10
2022-11-18T08:19:40.805Z,1.20
2022-11-18T08:22:08.970Z,1.10
2022-11-18T08:24:38.772Z,1.00
2022-11-18T08:27:07.029Z,1.10
2022-11-18T08:29:35.568Z,1.30
2022-11-18T08:32:03.792Z,1.10
2022-11-18T08:34:32.040Z,1.10
2022-11-18T08:37:00.317Z,1.10
2022-11-18T08:39:28.588Z,1.20
2022-11-18T08:42:00.081Z,1.20
2022-11-18T08:44:28.294Z,1.30
2022-11-18T08:46:56.844Z,1.20
2022-11-18T08:49:29.584Z,1.17
2022-11-18T08:52:00.620Z,1.30
2022-11-18T08:54:28.647Z,1.17
2022-11-18T08:56:58.430Z,1.17
2022-11-18T08:59:27.014Z,1.10
2022-11-18T09:01:55.260Z,1.20
2022-11-18T09:04:23.458Z,1.10
2022-11-18T09:06:51.928Z,1.20
2022-11-18T09:09:20.234Z,1.20
2022-11-18T09:11:48.714Z,1.10
2022-11-18T09:17:06.915Z,1.23
2022-11-18T09:19:47.176Z,1.13
2022-11-18T09:22:16.061Z,1.20
2022-11-18T09:24:45.224Z,1.10
2022-11-18T09:27:16.956Z,1.10
2022-11-18T09:29:47.372Z,1.07
2022-11-18T09:32:15.654Z,0.77
2022-11-18T09:34:43.784Z,0.80
2022-11-18T09:37:13.226Z,1.10
2022-11-18T09:39:41.356Z,0.80
2022-11-18T09:42:22.682Z,0.80
2022-11-18T09:45:13.031Z,0.93
2022-11-18T09:47:42.384Z,1.03
2022-11-18T09:50:47.895Z,0.80
2022-11-18T09:53:11.711Z,0.93
2022-11-18T09:55:41.910Z,1.00
2022-11-18T09:58:18.956Z,1.30
2022-11-18T10:00:48.431Z,1.00
2022-11-18T10:03:27.204Z,1.30
2022-11-18T10:06:00.263Z,1.50
2022-11-18T10:08:33.128Z,1.20
2022-11-18T10:11:07.912Z,1.00
2022-11-18T10:13:47.804Z,0.87
2022-11-18T10:16:33.171Z,0.90
2022-11-18T10:19:11.304Z,1.90
2022-11-18T10:21:50.213Z,1.57
2022-11-18T10:24:21.608Z,2.00
2022-11-18T10:26:55.560Z,1.20
2022-11-18T10:29:23.959Z,1.30
2022-11-18T10:32:04.718Z,1.13
2022-11-18T10:34:34.596Z,1.23
2022-11-18T10:37:04.278Z,1.03
2022-11-18T10:39:32.675Z,1.80
2022-11-18T10:42:04.194Z,0.93
2022-11-18T10:44:35.692Z,0.70
2022-11-18T10:47:27.055Z,1.00
2022-11-18T10:49:57.154Z,1.67
2022-11-18T10:52:25.542Z,1.07
2022-11-18T10:55:22.318Z,1.10
2022-11-18T10:57:53.645Z,1.33
2022-11-18T11:00:37.098Z,1.00
2022-11-18T11:03:30.686Z,0.97
2022-11-18T11:06:23.817Z,0.90
2022-11-18T11:08:53.880Z,1.10
2022-11-18T11:11:26.863Z,0.90
2022-11-18T11:14:02.156Z,1.10
2022-11-18T11:16:32.180Z,1.10
2022-11-18T11:19:05.557Z,1.13
2022-11-18T11:21:33.774Z,2.23
2022-11-18T11:24:02.021Z,1.73
2022-11-18T11:29:36.591Z,1.23
2022-11-18T11:32:16.993Z,0.87
2022-11-18T11:34:56.458Z,1.00
2022-11-18T11:37:34.493Z,0.80
2022-11-18T11:40:21.765Z,1.00
2022-11-18T11:43:00.278Z,1.10
2022-11-18T11:45:36.912Z,0.70
2022-11-18T11:48:25.086Z,0.90
2022-11-18T11:51:04.376Z,0.70
2022-11-18T11:54:08.473Z,0.50
2022-11-18T11:56:42.144Z,1.00
2022-11-18T11:59:24.715Z,1.00
2022-11-18T12:02:08.569Z,0.83
2022-11-18T12:04:43.884Z,1.33
2022-11-18T12:07:19.852Z,0.60
2022-11-18T12:10:03.924Z,0.80
2022-11-18T12:12:39.143Z,0.80
2022-11-18T12:15:21.731Z,0.90
2022-11-18T12:17:58.105Z,0.80
2022-11-18T12:20:43.821Z,1.10
2022-11-18T12:23:24.163Z,0.97
2022-11-18T12:25:58.747Z,0.70
2022-11-18T12:28:31.017Z,0.90
2022-11-18T12:31:40.557Z,0.70
2022-11-18T12:34:30.228Z,0.80
2022-11-18T12:36:58.699Z,0.70
2022-11-18T12:39:58.753Z,0.77
2022-11-18T12:43:06.040Z,1.00
2022-11-18T12:45:51.738Z,0.80
2022-11-18T12:48:42.318Z,0.93
2022-11-18T12:51:41.818Z,0.97
2022-11-18T12:54:31.315Z,0.80
2022-11-18T12:57:02.773Z,0.73
2022-11-18T12:59:39.331Z,1.00
2022-11-18T13:02:25.036Z,1.00
2022-11-18T13:05:08.463Z,0.87
2022-11-18T13:08:03.430Z,0.87
2022-11-18T13:10:34.786Z,0.83
2022-11-18T13:13:04.711Z,0.80
2022-11-18T13:15:50.423Z,0.80
2022-11-18T13:18:20.270Z,0.80
2022-11-18T13:20:57.843Z,0.80
2022-11-18T13:23:47.086Z,1.53
2022-11-18T13:26:21.112Z,1.10
2022-11-18T13:29:22.484Z,1.13
2022-11-18T13:32:00.619Z,0.93
2022-11-18T13:34:30.719Z,0.97
2022-11-18T13:37:01.389Z,0.90
2022-11-18T13:39:32.435Z,0.90
2022-11-18T13:42:02.321Z,1.00
2022-11-18T13:44:33.274Z,1.10
2022-11-18T13:47:08.479Z,1.03
2022-11-18T13:49:53.725Z,1.10
2022-11-18T13:52:27.715Z,1.70
2022-11-18T13:54:57.014Z,1.00
2022-11-18T13:57:27.126Z,1.10
2022-11-18T13:59:57.197Z,1.23
2022-11-18T14:02:25.432Z,1.10
2022-11-18T14:04:57.131Z,1.03
2022-11-18T14:07:29.821Z,1.30
2022-11-18T14:10:01.124Z,1.20
2022-11-18T14:12:32.739Z,1.30
2022-11-18T14:15:16.931Z,1.00
2022-11-18T14:17:53.155Z,0.97
2022-11-18T14:20:21.759Z,1.47
2022-11-18T14:22:54.338Z,1.50
2022-11-18T14:25:27.014Z,1.50
2022-11-18T14:27:57.400Z,1.43
2022-11-18T14:30:36.348Z,1.73
2022-11-18T14:33:15.891Z,1.80
2022-11-18T14:35:45.504Z,1.70
2022-11-18T14:41:07.071Z,2.00
2022-11-18T14:43:35.631Z,1.87
2022-11-18T14:46:07.293Z,1.80
2022-11-18T14:48:36.017Z,3.50
2022-11-18T14:51:04.339Z,1.60
2022-11-18T14:53:32.401Z,1.30
2022-11-18T14:56:01.524Z,1.90
2022-11-18T14:58:29.781Z,1.70
2022-11-18T15:00:58.090Z,1.30
2022-11-18T15:03:27.656Z,1.30
2022-11-18T15:05:56.048Z,1.77
2022-11-18T15:08:24.157Z,2.20
2022-11-18T15:10:52.324Z,1.57
2022-11-18T15:13:20.560Z,1.93
2022-11-18T15:15:51.665Z,2.20
2022-11-18T15:18:19.794Z,6.37
2022-11-18T15:20:49.372Z,2.20
2022-11-18T15:23:17.586Z,2.00
2022-11-18T15:25:45.823Z,1.60
2022-11-18T15:28:14.166Z,1.70
2022-11-18T15:30:42.404Z,1.90
2022-11-18T15:33:10.680Z,2.40
2022-11-18T15:35:39.122Z,1.97
2022-11-18T15:38:08.860Z,2.30
2022-11-18T15:40:38.916Z,1.87
2022-11-18T15:43:07.312Z,1.60
2022-11-18T15:45:38.894Z,1.30
2022-11-18T15:48:10.667Z,1.40
2022-11-18T15:50:38.837Z,1.57
2022-11-18T15:53:08.724Z,1.97
2022-11-18T15:55:37.317Z,2.70
2022-11-18T15:58:05.643Z,1.80
2022-11-18T16:00:33.909Z,1.30
2022-11-18T16:03:02.246Z,1.87
2022-11-18T16:05:30.493Z,1.70
2022-11-18T16:07:58.777Z,1.80
2022-11-18T16:10:46.139Z,2.97
2022-11-18T16:13:14.565Z,1.80
2022-11-18T16:15:48.357Z,1.73
2022-11-18T16:18:19.916Z,2.00
2022-11-18T16:20:48.184Z,1.90
2022-11-18T16:23:16.599Z,1.87
2022-11-18T16:25:47.401Z,1.73
2022-11-18T16:28:18.591Z,2.50
2022-11-18T16:31:07.594Z,1.83
2022-11-18T16:33:35.864Z,2.50
2022-11-18T16:36:04.456Z,2.03
2022-11-18T16:38:32.704Z,1.87
2022-11-18T16:41:22.326Z,1.90
2022-11-18T16:43:50.911Z,2.80
2022-11-18T16:46:19.310Z,1.60
2022-11-18T16:48:47.571Z,2.40
2022-11-18T16:51:22.745Z,2.07
2022-11-18T16:53:54.466Z,3.27
2022-11-18T16:56:25.892Z,1.70
2022-11-18T16:58:58.743Z,2.00
2022-11-18T17:01:29.601Z,3.53
2022-11-18T17:04:00.760Z,2.57
2022-11-18T17:06:29.845Z,2.20
2022-11-18T17:08:59.183Z,1.40
2022-11-18T17:11:29.050Z,1.70
2022-11-18T17:13:58.395Z,1.83
2022-11-18T17:16:27.672Z,3.53
2022-11-18T17:18:57.501Z,1.93
2022-11-18T17:21:26.951Z,1.30
2022-11-18T17:23:55.921Z,1.90
2022-11-18T17:26:25.981Z,1.83
2022-11-18T17:28:56.296Z,1.80
2022-11-18T17:31:26.024Z,1.63
2022-11-18T17:33:55.785Z,1.50
2022-11-18T17:36:26.170Z,2.33
2022-11-18T17:38:55.679Z,2.93
2022-11-18T17:41:44.139Z,1.73
2022-11-18T17:44:15.377Z,2.17
2022-11-18T17:46:44.517Z,3.00
2022-11-18T17:49:14.617Z,2.20
2022-11-18T17:51:42.832Z,2.17
2022-11-18T17:54:11.445Z,2.03
2022-11-18T17:56:40.204Z,2.43
2022-11-18T17:59:08.804Z,2.50
2022-11-18T18:01:38.717Z,2.43
2022-11-18T18:04:07.442Z,4.40
2022-11-18T18:06:35.725Z,2.30
2022-11-18T18:09:04.052Z,2.33
2022-11-18T18:11:32.326Z,2.20
2022-11-18T18:14:15.072Z,1.63
2022-11-18T18:16:46.562Z,2.80
2022-11-18T18:19:16.800Z,2.50
2022-11-18T18:21:45.531Z,2.10
2022-11-18T18:24:14.903Z,1.90
2022-11-18T18:26:43.099Z,2.30
2022-11-18T18:29:12.562Z,2.43
2022-11-18T18:31:41.115Z,2.50
2022-11-18T18:34:10.993Z,2.10
2022-11-18T18:36:39.575Z,1.97
2022-11-18T18:39:08.094Z,2.33
2022-11-18T18:41:37.052Z,2.30
2022-11-18T18:44:05.780Z,1.97
2022-11-18T18:46:33.065Z,2.50
2022-11-18T18:49:09.154Z,3.80
2022-11-18T18:51:40.859Z,3.03
2022-11-18T18:54:12.213Z,2.23
2022-11-18T18:56:41.172Z,2.30
2022-11-18T18:59:10.171Z,3.07
2022-11-18T19:01:39.247Z,2.23
2022-11-18T19:04:08.692Z,2.40
2022-11-18T19:09:28.058Z,2.80
2022-11-18T19:12:14.043Z,2.70
2022-11-18T19:14:42.585Z,2.60
2022-11-18T19:17:12.345Z,3.10
2022-11-18T19:19:59.929Z,2.50
2022-11-18T19:22:30.594Z,2.67
2022-11-18T19:24:59.407Z,5.20
2022-11-18T19:27:28.273Z,2.50
2022-11-18T19:29:56.465Z,3.40
2022-11-18T19:32:24.649Z,2.70
2022-11-18T19:34:53.163Z,4.07
2022-11-18T19:37:21.652Z,3.47
2022-11-18T19:39:51.057Z,3.70
2022-11-18T19:42:19.199Z,3.40
2022-11-18T19:44:47.442Z,3.43
2022-11-18T19:47:15.639Z,3.40
2022-11-18T19:49:43.933Z,3.10
2022-11-18T19:52:12.132Z,2.40
2022-11-18T19:54:40.758Z,2.77
2022-11-18T19:57:10.561Z,2.47
2022-11-18T19:59:38.738Z,2.50
2022-11-18T20:02:08.371Z,2.70
2022-11-18T20:04:36.869Z,2.70
2022-11-18T20:07:07.189Z,1.90
2022-11-18T20:09:35.524Z,1.87
2022-11-18T20:12:03.694Z,1.80
2022-11-18T20:14:33.203Z,2.20
2022-11-18T20:17:01.336Z,2.10
2022-11-18T20:19:29.446Z,2.17
2022-11-18T20:21:57.656Z,2.90
2022-11-18T20:24:26.043Z,2.00
2022-11-18T20:26:54.312Z,2.50
2022-11-18T20:29:22.734Z,1.90
2022-11-18T20:31:53.653Z,1.57
2022-11-18T20:34:22.278Z,2.00
2022-11-18T20:36:53.335Z,2.20
2022-11-18T20:39:21.951Z,2.10
2022-11-18T20:42:06.922Z,3.90
2022-11-18T20:44:35.179Z,1.87
2022-11-18T20:47:05.177Z,1.63
2022-11-18T20:49:35.182Z,1.30
2022-11-18T20:52:03.477Z,1.90
2022-11-18T20:54:31.500Z,1.30
2022-11-18T20:56:59.690Z,1.57
2022-11-18T20:59:27.841Z,1.30
2022-11-18T21:01:55.931Z,1.50
2022-11-18T21:04:27.683Z,1.20
2022-11-18T21:07:00.986Z,1.20
2022-11-18T21:09:32.104Z,1.30
2022-11-18T21:12:01.128Z,1.37
2022-11-18T21:14:28.458Z,1.33
2022-11-18T21:17:00.771Z,1.97
2022-11-18T21:19:32.926Z,1.93
2022-11-18T21:22:00.326Z,1.33
2022-11-18T21:24:30.389Z,1.50
2022-11-18T21:26:59.734Z,1.30
2022-11-18T21:29:29.593Z,1.00
2022-11-18T21:32:00.763Z,1.13
2022-11-18T21:34:31.021Z,7.23
2022-11-18T21:36:59.457Z,1.10
2022-11-18T21:39:27.781Z,1.00
2022-11-18T21:41:57.382Z,1.10
2022-11-18T21:44:28.148Z,1.10
2022-11-18T21:46:57.063Z,1.23
2022-11-18T21:49:25.104Z,0.90
2022-11-18T21:51:54.650Z,0.87
2022-11-18T21:54:22.946Z,1.10
2022-11-18T21:56:51.124Z,1.00
2022-11-18T21:59:19.417Z,1.20
2022-11-18T22:01:47.923Z,1.10
2022-11-18T22:04:37.911Z,1.17
2022-11-18T22:07:07.940Z,1.00
2022-11-18T22:09:36.929Z,1.10
2022-11-18T22:12:07.144Z,1.23
2022-11-18T22:14:36.113Z,1.30
2022-11-18T22:17:04.630Z,1.40
2022-11-18T22:19:32.967Z,1.00
2022-11-18T22:22:01.926Z,0.90
2022-11-18T22:24:31.486Z,0.90
2022-11-18T22:26:59.633Z,1.00
2022-11-18T22:29:27.920Z,0.80
2022-11-18T22:31:58.738Z,1.10
2022-11-18T22:34:28.731Z,1.10
2022-11-18T22:36:57.033Z,3.60
2022-11-18T22:39:25.143Z,1.17
2022-11-18T22:42:12.076Z,1.60
2022-11-18T22:44:41.438Z,1.00
2022-11-18T22:47:09.470Z,0.93
2022-11-18T22:49:38.083Z,0.90
2022-11-18T22:52:06.849Z,1.00
2022-11-18T22:54:39.682Z,0.90
2022-11-18T22:57:10.081Z,0.80
2022-11-18T22:59:39.421Z,1.03
2022-11-18T23:02:07.695Z,0.77
2022-11-18T23:04:36.669Z,0.83
2022-11-18T23:07:05.181Z,0.90
2022-11-18T23:09:33.441Z,1.40
2022-11-18T23:12:19.383Z,1.00
2022-11-18T23:14:49.084Z,0.90
2022-11-18T23:17:17.383Z,1.00
2022-11-18T23:19:47.099Z,1.20
2022-11-18T23:22:15.824Z,1.10
2022-11-18T23:24:44.091Z,1.00
2022-11-18T23:27:13.317Z,1.00
2022-11-18T23:29:41.527Z,1.00
2022-11-18T23:32:11.192Z,1.00
2022-11-18T23:34:39.293Z,1.00
2022-11-18T23:37:07.846Z,1.10
2022-11-18T23:39:37.587Z,1.10
2022-11-18T23:42:06.121Z,1.07
2022-11-18T23:44:46.784Z,1.00
2022-11-18T23:47:16.255Z,0.90
2022-11-18T23:49:44.398Z,1.20
2022-11-18T23:52:12.939Z,1.20
2022-11-18T23:54:41.118Z,1.00
2022-11-18T23:57:09.397Z,1.30
2022-11-18T23:59:37.991Z,1.03
